sensor_id;sensor_type;location;lat;lon;timestamp;P1;durP1;ratioP1;P2;durP2;ratioP2
26106;SDS011;13866;50.748;12.630;2023-11-21T00:01:52;4.47;;;2.10;;
26106;SDS011;13866;50.748;12.630;2023-11-21T00:04:17;2.43;;;2.23;;
26106;SDS011;13866;50.748;12.630;2023-11-21T00:06:43;1.90;;;1.80;;
26106;SDS011;13866;50.748;12.630;2023-11-21T00:09:12;1.90;;;1.90;;
26106;SDS011;13866;50.748;12.630;2023-11-21T00:11:40;1.50;;;1.50;;
26106;SDS011;13866;50.748;12.630;2023-11-21T00:14:06;1.80;;;1.70;;
26106;SDS011;13866;50.748;12.630;2023-11-21T00:16:31;1.97;;;1.77;;
26106;SDS011;13866;50.748;12.630;2023-11-21T00:18:57;9.73;;;2.33;;
26106;SDS011;13866;50.748;12.630;2023-11-21T00:21:22;1.63;;;1.63;;
26106;SDS011;13866;50.748;12.630;2023-11-21T00:23:48;2.17;;;2.07;;
26106;SDS011;13866;50.748;12.630;2023-11-21T00:26:14;2.33;;;2.33;;
26106;SDS011;13866;50.748;12.630;2023-11-21T00:28:39;3.33;;;1.70;;
26106;SDS011;13866;50.748;12.630;2023-11-21T00:31:05;1.70;;;1.60;;
26106;SDS011;13866;50.748;12.630;2023-11-21T00:33:30;1.40;;;1.30;;
26106;SDS011;13866;50.748;12.630;2023-11-21T00:35:56;1.40;;;1.40;;
26106;SDS011;13866;50.748;12.630;2023-11-21T00:38:22;2.20;;;2.03;;
26106;SDS011;13866;50.748;12.630;2023-11-21T00:40:48;3.40;;;1.90;;
26106;SDS011;13866;50.748;12.630;2023-11-21T00:43:13;2.37;;;2.00;;
26106;SDS011;13866;50.748;12.630;2023-11-21T00:45:39;1.90;;;1.80;;
26106;SDS011;13866;50.748;12.630;2023-11-21T00:48:05;1.67;;;1.53;;
26106;SDS011;13866;50.748;12.630;2023-11-21T00:50:30;2.27;;;1.97;;
26106;SDS011;13866;50.748;12.630;2023-11-21T00:52:56;1.80;;;1.70;;
26106;SDS011;13866;50.748;12.630;2023-11-21T00:55:22;1.50;;;1.40;;
26106;SDS011;13866;50.748;12.630;2023-11-21T00:57:48;2.30;;;1.60;;
26106;SDS011;13866;50.748;12.630;2023-11-21T01:00:13;1.77;;;1.40;;
26106;SDS011;13866;50.748;12.630;2023-11-21T01:02:42;2.17;;;2.07;;
26106;SDS011;13866;50.748;12.630;2023-11-21T01:05:09;2.23;;;1.50;;
26106;SDS011;13866;50.748;12.630;2023-11-21T01:07:35;5.50;;;1.60;;
26106;SDS011;13866;50.748;12.630;2023-11-21T01:10:02;1.40;;;1.30;;
26106;SDS011;13866;50.748;12.630;2023-11-21T01:12:30;3.97;;;1.40;;
26106;SDS011;13866;50.748;12.630;2023-11-21T01:14:56;1.60;;;1.50;;
26106;SDS011;13866;50.748;12.630;2023-11-21T01:17:25;2.63;;;1.27;;
26106;SDS011;13866;50.748;12.630;2023-11-21T01:19:50;1.63;;;1.50;;
26106;SDS011;13866;50.748;12.630;2023-11-21T01:22:16;2.83;;;2.47;;
26106;SDS011;13866;50.748;12.630;2023-11-21T01:24:41;2.33;;;2.20;;
26106;SDS011;13866;50.748;12.630;2023-11-21T01:27:07;2.83;;;2.73;;
26106;SDS011;13866;50.748;12.630;2023-11-21T01:29:33;1.87;;;1.87;;
26106;SDS011;13866;50.748;12.630;2023-11-21T01:32:00;2.13;;;2.03;;
26106;SDS011;13866;50.748;12.630;2023-11-21T01:34:27;2.87;;;1.70;;
26106;SDS011;13866;50.748;12.630;2023-11-21T01:36:53;1.57;;;1.47;;
26106;SDS011;13866;50.748;12.630;2023-11-21T01:39:18;2.27;;;1.77;;
26106;SDS011;13866;50.748;12.630;2023-11-21T01:41:49;2.57;;;1.50;;
26106;SDS011;13866;50.748;12.630;2023-11-21T01:44:15;4.03;;;1.93;;
26106;SDS011;13866;50.748;12.630;2023-11-21T01:46:42;8.93;;;2.00;;
26106;SDS011;13866;50.748;12.630;2023-11-21T01:49:07;1.67;;;1.67;;
26106;SDS011;13866;50.748;12.630;2023-11-21T01:51:36;1.70;;;1.47;;
26106;SDS011;13866;50.748;12.630;2023-11-21T01:54:02;1.50;;;1.50;;
26106;SDS011;13866;50.748;12.630;2023-11-21T01:56:30;1.90;;;1.80;;
26106;SDS011;13866;50.748;12.630;2023-11-21T01:58:56;1.50;;;1.40;;
26106;SDS011;13866;50.748;12.630;2023-11-21T02:01:22;2.20;;;1.50;;
26106;SDS011;13866;50.748;12.630;2023-11-21T02:03:48;1.40;;;1.40;;
26106;SDS011;13866;50.748;12.630;2023-11-21T02:06:14;1.47;;;1.47;;
26106;SDS011;13866;50.748;12.630;2023-11-21T02:08:39;5.37;;;1.80;;
26106;SDS011;13866;50.748;12.630;2023-11-21T02:11:07;1.97;;;1.90;;
26106;SDS011;13866;50.748;12.630;2023-11-21T02:13:34;2.10;;;2.10;;
26106;SDS011;13866;50.748;12.630;2023-11-21T02:16:00;8.13;;;1.80;;
26106;SDS011;13866;50.748;12.630;2023-11-21T02:18:26;1.93;;;1.47;;
26106;SDS011;13866;50.748;12.630;2023-11-21T02:20:54;3.87;;;1.57;;
26106;SDS011;13866;50.748;12.630;2023-11-21T02:23:21;3.13;;;1.77;;
26106;SDS011;13866;50.748;12.630;2023-11-21T02:25:48;1.43;;;1.43;;
26106;SDS011;13866;50.748;12.630;2023-11-21T02:28:13;1.80;;;1.70;;
26106;SDS011;13866;50.748;12.630;2023-11-21T02:30:41;1.90;;;1.20;;
26106;SDS011;13866;50.748;12.630;2023-11-21T02:33:07;1.90;;;1.90;;
26106;SDS011;13866;50.748;12.630;2023-11-21T02:35:33;1.60;;;1.60;;
26106;SDS011;13866;50.748;12.630;2023-11-21T02:37:58;2.40;;;2.40;;
26106;SDS011;13866;50.748;12.630;2023-11-21T02:40:24;1.73;;;1.73;;
26106;SDS011;13866;50.748;12.630;2023-11-21T02:42:51;1.97;;;1.97;;
26106;SDS011;13866;50.748;12.630;2023-11-21T02:45:18;2.23;;;2.10;;
26106;SDS011;13866;50.748;12.630;2023-11-21T02:47:45;2.00;;;1.80;;
26106;SDS011;13866;50.748;12.630;2023-11-21T02:50:12;2.30;;;1.60;;
26106;SDS011;13866;50.748;12.630;2023-11-21T02:52:38;2.33;;;2.20;;
26106;SDS011;13866;50.748;12.630;2023-11-21T02:55:05;2.73;;;2.40;;
26106;SDS011;13866;50.748;12.630;2023-11-21T02:57:32;4.23;;;2.50;;
26106;SDS011;13866;50.748;12.630;2023-11-21T02:59:58;13.40;;;2.70;;
26106;SDS011;13866;50.748;12.630;2023-11-21T03:02:24;3.50;;;2.00;;
26106;SDS011;13866;50.748;12.630;2023-11-21T03:04:50;2.20;;;2.10;;
26106;SDS011;13866;50.748;12.630;2023-11-21T03:07:16;21.40;;;2.50;;
26106;SDS011;13866;50.748;12.630;2023-11-21T03:09:44;2.37;;;2.37;;
26106;SDS011;13866;50.748;12.630;2023-11-21T03:12:10;2.20;;;2.10;;
26106;SDS011;13866;50.748;12.630;2023-11-21T03:14:37;2.03;;;2.03;;
26106;SDS011;13866;50.748;12.630;2023-11-21T03:17:03;2.53;;;2.43;;
26106;SDS011;13866;50.748;12.630;2023-11-21T03:19:29;4.10;;;2.20;;
26106;SDS011;13866;50.748;12.630;2023-11-21T03:21:55;2.43;;;2.27;;
26106;SDS011;13866;50.748;12.630;2023-11-21T03:24:20;2.50;;;2.13;;
26106;SDS011;13866;50.748;12.630;2023-11-21T03:26:47;2.60;;;2.50;;
26106;SDS011;13866;50.748;12.630;2023-11-21T03:29:13;3.97;;;2.50;;
26106;SDS011;13866;50.748;12.630;2023-11-21T03:31:39;2.87;;;2.67;;
26106;SDS011;13866;50.748;12.630;2023-11-21T03:34:05;4.60;;;2.13;;
26106;SDS011;13866;50.748;12.630;2023-11-21T03:36:31;10.43;;;2.90;;
26106;SDS011;13866;50.748;12.630;2023-11-21T03:38:56;2.70;;;2.70;;
26106;SDS011;13866;50.748;12.630;2023-11-21T03:41:22;5.10;;;2.60;;
26106;SDS011;13866;50.748;12.630;2023-11-21T03:43:47;2.33;;;2.23;;
26106;SDS011;13866;50.748;12.630;2023-11-21T03:46:13;2.20;;;2.17;;
26106;SDS011;13866;50.748;12.630;2023-11-21T03:48:39;2.27;;;2.27;;
26106;SDS011;13866;50.748;12.630;2023-11-21T03:51:04;2.97;;;2.80;;
26106;SDS011;13866;50.748;12.630;2023-11-21T03:53:30;2.30;;;2.20;;
26106;SDS011;13866;50.748;12.630;2023-11-21T03:55:55;2.27;;;2.27;;
26106;SDS011;13866;50.748;12.630;2023-11-21T03:58:21;3.43;;;3.30;;
26106;SDS011;13866;50.748;12.630;2023-11-21T04:00:47;2.43;;;2.43;;
26106;SDS011;13866;50.748;12.630;2023-11-21T04:03:15;2.00;;;2.00;;
26106;SDS011;13866;50.748;12.630;2023-11-21T04:05:41;3.70;;;2.97;;
26106;SDS011;13866;50.748;12.630;2023-11-21T04:08:06;2.63;;;2.50;;
26106;SDS011;13866;50.748;12.630;2023-11-21T04:10:32;2.73;;;2.50;;
26106;SDS011;13866;50.748;12.630;2023-11-21T04:12:57;2.83;;;2.60;;
26106;SDS011;13866;50.748;12.630;2023-11-21T04:15:23;3.37;;;3.20;;
26106;SDS011;13866;50.748;12.630;2023-11-21T04:17:49;2.90;;;2.90;;
26106;SDS011;13866;50.748;12.630;2023-11-21T04:20:14;3.00;;;2.90;;
26106;SDS011;13866;50.748;12.630;2023-11-21T04:22:40;4.10;;;3.17;;
26106;SDS011;13866;50.748;12.630;2023-11-21T04:25:08;3.20;;;3.10;;
26106;SDS011;13866;50.748;12.630;2023-11-21T04:27:41;2.90;;;2.70;;
26106;SDS011;13866;50.748;12.630;2023-11-21T04:30:09;2.90;;;2.40;;
26106;SDS011;13866;50.748;12.630;2023-11-21T04:32:35;7.70;;;2.90;;
26106;SDS011;13866;50.748;12.630;2023-11-21T04:35:00;2.63;;;2.50;;
26106;SDS011;13866;50.748;12.630;2023-11-21T04:37:27;2.40;;;2.30;;
26106;SDS011;13866;50.748;12.630;2023-11-21T04:39:52;2.90;;;2.80;;
26106;SDS011;13866;50.748;12.630;2023-11-21T04:42:18;3.23;;;2.33;;
26106;SDS011;13866;50.748;12.630;2023-11-21T04:44:43;2.30;;;2.30;;
26106;SDS011;13866;50.748;12.630;2023-11-21T04:47:09;2.60;;;2.37;;
26106;SDS011;13866;50.748;12.630;2023-11-21T04:49:35;2.63;;;2.43;;
26106;SDS011;13866;50.748;12.630;2023-11-21T04:52:00;2.40;;;2.40;;
26106;SDS011;13866;50.748;12.630;2023-11-21T04:54:26;2.70;;;2.57;;
26106;SDS011;13866;50.748;12.630;2023-11-21T04:56:52;2.27;;;2.27;;
26106;SDS011;13866;50.748;12.630;2023-11-21T04:59:18;2.70;;;2.60;;
26106;SDS011;13866;50.748;12.630;2023-11-21T05:01:43;2.40;;;2.40;;
26106;SDS011;13866;50.748;12.630;2023-11-21T05:04:09;2.50;;;2.37;;
26106;SDS011;13866;50.748;12.630;2023-11-21T05:06:34;3.13;;;2.80;;
26106;SDS011;13866;50.748;12.630;2023-11-21T05:09:00;3.17;;;2.50;;
26106;SDS011;13866;50.748;12.630;2023-11-21T05:11:26;3.30;;;3.20;;
26106;SDS011;13866;50.748;12.630;2023-11-21T05:13:52;4.27;;;2.47;;
26106;SDS011;13866;50.748;12.630;2023-11-21T05:16:19;2.50;;;2.50;;
26106;SDS011;13866;50.748;12.630;2023-11-21T05:18:45;2.90;;;2.80;;
26106;SDS011;13866;50.748;12.630;2023-11-21T05:21:10;2.60;;;2.50;;
26106;SDS011;13866;50.748;12.630;2023-11-21T05:23:36;3.10;;;2.90;;
26106;SDS011;13866;50.748;12.630;2023-11-21T05:26:02;2.57;;;2.47;;
26106;SDS011;13866;50.748;12.630;2023-11-21T05:28:28;10.20;;;3.20;;
26106;SDS011;13866;50.748;12.630;2023-11-21T05:30:53;2.70;;;2.60;;
26106;SDS011;13866;50.748;12.630;2023-11-21T05:33:19;2.40;;;2.40;;
26106;SDS011;13866;50.748;12.630;2023-11-21T05:35:45;4.00;;;2.80;;
26106;SDS011;13866;50.748;12.630;2023-11-21T05:38:11;4.10;;;3.20;;
26106;SDS011;13866;50.748;12.630;2023-11-21T05:40:36;2.77;;;2.67;;
26106;SDS011;13866;50.748;12.630;2023-11-21T05:43:02;3.20;;;3.00;;
26106;SDS011;13866;50.748;12.630;2023-11-21T05:45:28;2.53;;;2.53;;
26106;SDS011;13866;50.748;12.630;2023-11-21T05:47:54;2.83;;;2.70;;
26106;SDS011;13866;50.748;12.630;2023-11-21T05:50:20;4.37;;;2.30;;
26106;SDS011;13866;50.748;12.630;2023-11-21T05:52:47;11.40;;;2.50;;
26106;SDS011;13866;50.748;12.630;2023-11-21T05:55:13;3.00;;;2.90;;
26106;SDS011;13866;50.748;12.630;2023-11-21T05:57:39;4.93;;;3.30;;
26106;SDS011;13866;50.748;12.630;2023-11-21T06:00:07;3.50;;;3.30;;
26106;SDS011;13866;50.748;12.630;2023-11-21T06:02:44;4.50;;;4.10;;
26106;SDS011;13866;50.748;12.630;2023-11-21T06:05:10;3.60;;;3.37;;
26106;SDS011;13866;50.748;12.630;2023-11-21T06:07:36;3.60;;;3.40;;
26106;SDS011;13866;50.748;12.630;2023-11-21T06:10:03;3.90;;;3.60;;
26106;SDS011;13866;50.748;12.630;2023-11-21T06:12:36;3.40;;;3.30;;
26106;SDS011;13866;50.748;12.630;2023-11-21T06:15:05;3.60;;;3.60;;
26106;SDS011;13866;50.748;12.630;2023-11-21T06:17:34;3.80;;;3.63;;
26106;SDS011;13866;50.748;12.630;2023-11-21T06:20:02;3.07;;;2.97;;
26106;SDS011;13866;50.748;12.630;2023-11-21T06:22:34;4.00;;;3.80;;
26106;SDS011;13866;50.748;12.630;2023-11-21T06:25:02;3.87;;;3.67;;
26106;SDS011;13866;50.748;12.630;2023-11-21T06:27:33;3.73;;;3.60;;
26106;SDS011;13866;50.748;12.630;2023-11-21T06:30:10;4.13;;;3.87;;
26106;SDS011;13866;50.748;12.630;2023-11-21T06:32:42;4.40;;;3.60;;
26106;SDS011;13866;50.748;12.630;2023-11-21T06:35:11;4.93;;;4.73;;
26106;SDS011;13866;50.748;12.630;2023-11-21T06:37:38;5.00;;;4.90;;
26106;SDS011;13866;50.748;12.630;2023-11-21T06:40:04;4.87;;;4.53;;
26106;SDS011;13866;50.748;12.630;2023-11-21T06:42:31;5.47;;;5.27;;
26106;SDS011;13866;50.748;12.630;2023-11-21T06:44:58;5.63;;;5.43;;
26106;SDS011;13866;50.748;12.630;2023-11-21T06:47:24;5.80;;;5.10;;
26106;SDS011;13866;50.748;12.630;2023-11-21T06:49:50;5.63;;;5.10;;
26106;SDS011;13866;50.748;12.630;2023-11-21T06:52:16;5.40;;;5.10;;
26106;SDS011;13866;50.748;12.630;2023-11-21T06:54:43;5.80;;;5.40;;
26106;SDS011;13866;50.748;12.630;2023-11-21T06:57:08;6.23;;;5.63;;
26106;SDS011;13866;50.748;12.630;2023-11-21T06:59:35;5.23;;;4.97;;
26106;SDS011;13866;50.748;12.630;2023-11-21T07:02:00;8.23;;;5.23;;
26106;SDS011;13866;50.748;12.630;2023-11-21T07:04:26;5.93;;;5.60;;
26106;SDS011;13866;50.748;12.630;2023-11-21T07:06:53;11.47;;;6.90;;
26106;SDS011;13866;50.748;12.630;2023-11-21T07:09:19;6.57;;;6.13;;
26106;SDS011;13866;50.748;12.630;2023-11-21T07:11:47;10.73;;;8.00;;
26106;SDS011;13866;50.748;12.630;2023-11-21T07:14:13;6.67;;;6.27;;
26106;SDS011;13866;50.748;12.630;2023-11-21T07:16:39;8.23;;;7.40;;
26106;SDS011;13866;50.748;12.630;2023-11-21T07:19:05;10.33;;;7.43;;
26106;SDS011;13866;50.748;12.630;2023-11-21T07:21:33;6.97;;;6.53;;
26106;SDS011;13866;50.748;12.630;2023-11-21T07:24:00;7.67;;;6.63;;
26106;SDS011;13866;50.748;12.630;2023-11-21T07:26:31;7.90;;;6.30;;
26106;SDS011;13866;50.748;12.630;2023-11-21T07:28:58;7.73;;;7.33;;
26106;SDS011;13866;50.748;12.630;2023-11-21T07:31:24;11.20;;;7.80;;
26106;SDS011;13866;50.748;12.630;2023-11-21T07:33:50;8.23;;;7.33;;
26106;SDS011;13866;50.748;12.630;2023-11-21T07:36:16;8.17;;;7.57;;
26106;SDS011;13866;50.748;12.630;2023-11-21T07:38:48;11.27;;;8.10;;
26106;SDS011;13866;50.748;12.630;2023-11-21T07:41:14;11.57;;;7.30;;
26106;SDS011;13866;50.748;12.630;2023-11-21T07:43:43;10.60;;;7.70;;
26106;SDS011;13866;50.748;12.630;2023-11-21T07:46:09;7.90;;;7.30;;
26106;SDS011;13866;50.748;12.630;2023-11-21T07:48:35;7.37;;;6.93;;
26106;SDS011;13866;50.748;12.630;2023-11-21T07:51:01;8.00;;;7.20;;
26106;SDS011;13866;50.748;12.630;2023-11-21T07:53:30;8.73;;;8.10;;
26106;SDS011;13866;50.748;12.630;2023-11-21T07:55:56;22.67;;;7.80;;
26106;SDS011;13866;50.748;12.630;2023-11-21T07:58:22;10.53;;;7.63;;
26106;SDS011;13866;50.748;12.630;2023-11-21T08:00:49;8.50;;;7.80;;
26106;SDS011;13866;50.748;12.630;2023-11-21T08:03:15;8.03;;;7.33;;
26106;SDS011;13866;50.748;12.630;2023-11-21T08:05:41;7.03;;;6.70;;
26106;SDS011;13866;50.748;12.630;2023-11-21T08:08:07;12.53;;;8.43;;
26106;SDS011;13866;50.748;12.630;2023-11-21T08:10:32;7.67;;;7.27;;
26106;SDS011;13866;50.748;12.630;2023-11-21T08:12:58;14.27;;;8.63;;
26106;SDS011;13866;50.748;12.630;2023-11-21T08:15:24;12.83;;;8.07;;
26106;SDS011;13866;50.748;12.630;2023-11-21T08:17:50;8.20;;;7.60;;
26106;SDS011;13866;50.748;12.630;2023-11-21T08:20:15;9.57;;;8.77;;
26106;SDS011;13866;50.748;12.630;2023-11-21T08:22:41;12.53;;;8.53;;
26106;SDS011;13866;50.748;12.630;2023-11-21T08:25:07;18.37;;;8.57;;
26106;SDS011;13866;50.748;12.630;2023-11-21T08:27:33;13.13;;;8.60;;
26106;SDS011;13866;50.748;12.630;2023-11-21T08:29:59;11.60;;;8.47;;
26106;SDS011;13866;50.748;12.630;2023-11-21T08:32:25;9.10;;;8.20;;
26106;SDS011;13866;50.748;12.630;2023-11-21T08:34:51;10.13;;;8.77;;
26106;SDS011;13866;50.748;12.630;2023-11-21T08:37:17;11.40;;;8.20;;
26106;SDS011;13866;50.748;12.630;2023-11-21T08:39:43;8.03;;;7.43;;
26106;SDS011;13866;50.748;12.630;2023-11-21T08:42:09;15.40;;;8.30;;
26106;SDS011;13866;50.748;12.630;2023-11-21T08:44:35;11.70;;;10.67;;
26106;SDS011;13866;50.748;12.630;2023-11-21T08:47:01;9.40;;;8.47;;
26106;SDS011;13866;50.748;12.630;2023-11-21T08:49:26;10.97;;;9.73;;
26106;SDS011;13866;50.748;12.630;2023-11-21T08:51:54;10.43;;;9.30;;
26106;SDS011;13866;50.748;12.630;2023-11-21T08:54:20;18.77;;;10.17;;
26106;SDS011;13866;50.748;12.630;2023-11-21T08:56:46;12.47;;;10.30;;
26106;SDS011;13866;50.748;12.630;2023-11-21T08:59:11;12.23;;;9.90;;
26106;SDS011;13866;50.748;12.630;2023-11-21T09:01:39;15.63;;;10.77;;
26106;SDS011;13866;50.748;12.630;2023-11-21T09:04:05;12.87;;;11.67;;
26106;SDS011;13866;50.748;12.630;2023-11-21T09:06:31;19.63;;;10.57;;
26106;SDS011;13866;50.748;12.630;2023-11-21T09:08:56;14.83;;;11.17;;
26106;SDS011;13866;50.748;12.630;2023-11-21T09:11:22;12.33;;;10.17;;
26106;SDS011;13866;50.748;12.630;2023-11-21T09:13:50;16.53;;;11.30;;
26106;SDS011;13866;50.748;12.630;2023-11-21T09:16:16;12.17;;;11.07;;
26106;SDS011;13866;50.748;12.630;2023-11-21T09:18:42;12.67;;;11.77;;
26106;SDS011;13866;50.748;12.630;2023-11-21T09:21:08;12.60;;;11.67;;
26106;SDS011;13866;50.748;12.630;2023-11-21T09:23:34;13.70;;;12.40;;
26106;SDS011;13866;50.748;12.630;2023-11-21T09:26:00;11.43;;;10.43;;
26106;SDS011;13866;50.748;12.630;2023-11-21T09:28:26;15.33;;;13.10;;
26106;SDS011;13866;50.748;12.630;2023-11-21T09:30:52;11.70;;;10.70;;
26106;SDS011;13866;50.748;12.630;2023-11-21T09:33:18;13.57;;;12.17;;
26106;SDS011;13866;50.748;12.630;2023-11-21T09:35:44;17.53;;;13.23;;
26106;SDS011;13866;50.748;12.630;2023-11-21T09:38:09;16.37;;;13.10;;
26106;SDS011;13866;50.748;12.630;2023-11-21T09:40:36;14.90;;;13.40;;
26106;SDS011;13866;50.748;12.630;2023-11-21T09:43:04;17.27;;;13.10;;
26106;SDS011;13866;50.748;12.630;2023-11-21T09:45:34;15.30;;;13.60;;
26106;SDS011;13866;50.748;12.630;2023-11-21T09:48:01;24.00;;;12.20;;
26106;SDS011;13866;50.748;12.630;2023-11-21T09:50:27;14.43;;;12.70;;
26106;SDS011;13866;50.748;12.630;2023-11-21T09:55:36;14.23;;;9.30;;
26106;SDS011;13866;50.748;12.630;2023-11-21T09:58:03;10.93;;;8.63;;
26106;SDS011;13866;50.748;12.630;2023-11-21T10:00:32;9.67;;;8.97;;
26106;SDS011;13866;50.748;12.630;2023-11-21T10:02:58;10.50;;;9.87;;
26106;SDS011;13866;50.748;12.630;2023-11-21T10:05:24;10.07;;;9.03;;
26106;SDS011;13866;50.748;12.630;2023-11-21T10:07:50;13.03;;;9.30;;
26106;SDS011;13866;50.748;12.630;2023-11-21T10:10:18;7.20;;;6.93;;
26106;SDS011;13866;50.748;12.630;2023-11-21T10:12:54;7.47;;;7.17;;
26106;SDS011;13866;50.748;12.630;2023-11-21T10:15:21;8.53;;;7.70;;
26106;SDS011;13866;50.748;12.630;2023-11-21T10:17:48;8.73;;;8.23;;
26106;SDS011;13866;50.748;12.630;2023-11-21T10:20:14;7.80;;;7.27;;
26106;SDS011;13866;50.748;12.630;2023-11-21T10:22:43;6.63;;;6.43;;
26106;SDS011;13866;50.748;12.630;2023-11-21T10:25:09;8.10;;;7.70;;
26106;SDS011;13866;50.748;12.630;2023-11-21T10:27:36;8.97;;;8.37;;
26106;SDS011;13866;50.748;12.630;2023-11-21T10:30:04;12.13;;;7.73;;
26106;SDS011;13866;50.748;12.630;2023-11-21T10:32:30;8.73;;;8.03;;
26106;SDS011;13866;50.748;12.630;2023-11-21T10:34:57;9.00;;;8.47;;
26106;SDS011;13866;50.748;12.630;2023-11-21T10:37:25;9.80;;;9.20;;
26106;SDS011;13866;50.748;12.630;2023-11-21T10:39:56;11.33;;;9.60;;
26106;SDS011;13866;50.748;12.630;2023-11-21T10:42:23;11.20;;;10.17;;
26106;SDS011;13866;50.748;12.630;2023-11-21T10:44:49;17.13;;;11.10;;
26106;SDS011;13866;50.748;12.630;2023-11-21T10:47:15;13.37;;;12.07;;
26106;SDS011;13866;50.748;12.630;2023-11-21T10:49:44;25.10;;;16.00;;
26106;SDS011;13866;50.748;12.630;2023-11-21T10:52:12;26.50;;;17.20;;
26106;SDS011;13866;50.748;12.630;2023-11-21T10:54:42;26.03;;;16.90;;
26106;SDS011;13866;50.748;12.630;2023-11-21T10:57:08;52.13;;;18.80;;
26106;SDS011;13866;50.748;12.630;2023-11-21T10:59:35;50.00;;;18.73;;
26106;SDS011;13866;50.748;12.630;2023-11-21T11:02:02;44.70;;;16.87;;
26106;SDS011;13866;50.748;12.630;2023-11-21T11:04:46;31.87;;;15.80;;
26106;SDS011;13866;50.748;12.630;2023-11-21T11:07:13;40.70;;;17.27;;
26106;SDS011;13866;50.748;12.630;2023-11-21T11:09:41;55.97;;;17.33;;
26106;SDS011;13866;50.748;12.630;2023-11-21T11:12:07;32.63;;;15.83;;
26106;SDS011;13866;50.748;12.630;2023-11-21T11:14:34;24.67;;;15.60;;
26106;SDS011;13866;50.748;12.630;2023-11-21T11:17:01;40.83;;;16.30;;
26106;SDS011;13866;50.748;12.630;2023-11-21T11:19:27;31.97;;;16.50;;
26106;SDS011;13866;50.748;12.630;2023-11-21T11:24:49;28.93;;;15.80;;
26106;SDS011;13866;50.748;12.630;2023-11-21T11:38:32;15.87;;;12.80;;
26106;SDS011;13866;50.748;12.630;2023-11-21T11:41:01;15.70;;;13.60;;
26106;SDS011;13866;50.748;12.630;2023-11-21T11:43:29;16.67;;;13.00;;
26106;SDS011;13866;50.748;12.630;2023-11-21T11:45:56;18.37;;;13.07;;
26106;SDS011;13866;50.748;12.630;2023-11-21T11:48:25;17.30;;;13.27;;
26106;SDS011;13866;50.748;12.630;2023-11-21T11:51:07;18.43;;;13.97;;
26106;SDS011;13866;50.748;12.630;2023-11-21T11:53:45;21.13;;;15.03;;
26106;SDS011;13866;50.748;12.630;2023-11-21T11:56:28;22.33;;;14.80;;
26106;SDS011;13866;50.748;12.630;2023-11-21T11:58:57;15.00;;;12.93;;
26106;SDS011;13866;50.748;12.630;2023-11-21T12:01:25;17.93;;;13.00;;
26106;SDS011;13866;50.748;12.630;2023-11-21T12:06:50;16.00;;;13.27;;
26106;SDS011;13866;50.748;12.630;2023-11-21T12:09:18;13.20;;;12.00;;
26106;SDS011;13866;50.748;12.630;2023-11-21T12:11:50;18.03;;;12.43;;
26106;SDS011;13866;50.748;12.630;2023-11-21T12:14:16;19.77;;;12.97;;
26106;SDS011;13866;50.748;12.630;2023-11-21T12:16:42;12.93;;;11.63;;
26106;SDS011;13866;50.748;12.630;2023-11-21T12:19:09;42.97;;;11.53;;
26106;SDS011;13866;50.748;12.630;2023-11-21T12:21:36;46.50;;;12.03;;
26106;SDS011;13866;50.748;12.630;2023-11-21T12:24:02;86.40;;;13.40;;
26106;SDS011;13866;50.748;12.630;2023-11-21T12:26:28;72.00;;;19.27;;
26106;SDS011;13866;50.748;12.630;2023-11-21T12:28:53;127.13;;;21.00;;
26106;SDS011;13866;50.748;12.630;2023-11-21T12:31:20;70.03;;;21.37;;
26106;SDS011;13866;50.748;12.630;2023-11-21T12:33:49;56.63;;;19.63;;
26106;SDS011;13866;50.748;12.630;2023-11-21T12:36:15;39.87;;;20.97;;
26106;SDS011;13866;50.748;12.630;2023-11-21T12:38:41;14.17;;;10.93;;
26106;SDS011;13866;50.748;12.630;2023-11-21T12:41:07;18.63;;;12.10;;
26106;SDS011;13866;50.748;12.630;2023-11-21T12:43:33;13.37;;;11.00;;
26106;SDS011;13866;50.748;12.630;2023-11-21T12:46:12;12.30;;;11.00;;
26106;SDS011;13866;50.748;12.630;2023-11-21T12:48:39;12.37;;;11.20;;
26106;SDS011;13866;50.748;12.630;2023-11-21T12:51:07;11.03;;;9.87;;
26106;SDS011;13866;50.748;12.630;2023-11-21T12:53:34;10.00;;;9.20;;
26106;SDS011;13866;50.748;12.630;2023-11-21T12:56:07;10.83;;;9.77;;
26106;SDS011;13866;50.748;12.630;2023-11-21T12:58:35;13.00;;;9.20;;
26106;SDS011;13866;50.748;12.630;2023-11-21T13:01:02;19.70;;;11.40;;
26106;SDS011;13866;50.748;12.630;2023-11-21T13:03:29;12.70;;;9.03;;
26106;SDS011;13866;50.748;12.630;2023-11-21T13:05:55;11.70;;;10.17;;
26106;SDS011;13866;50.748;12.630;2023-11-21T13:08:22;9.87;;;8.80;;
26106;SDS011;13866;50.748;12.630;2023-11-21T13:10:50;15.10;;;9.70;;
26106;SDS011;13866;50.748;12.630;2023-11-21T13:13:19;9.30;;;8.60;;
26106;SDS011;13866;50.748;12.630;2023-11-21T13:15:48;8.37;;;7.70;;
26106;SDS011;13866;50.748;12.630;2023-11-21T13:18:15;8.93;;;8.13;;
26106;SDS011;13866;50.748;12.630;2023-11-21T13:20:42;8.70;;;7.90;;
26106;SDS011;13866;50.748;12.630;2023-11-21T13:23:09;8.23;;;7.50;;
26106;SDS011;13866;50.748;12.630;2023-11-21T13:25:41;7.43;;;6.87;;
26106;SDS011;13866;50.748;12.630;2023-11-21T13:28:07;10.83;;;8.30;;
26106;SDS011;13866;50.748;12.630;2023-11-21T13:30:34;23.70;;;12.40;;
26106;SDS011;13866;50.748;12.630;2023-11-21T13:33:01;15.63;;;12.70;;
26106;SDS011;13866;50.748;12.630;2023-11-21T13:35:27;25.90;;;17.57;;
26106;SDS011;13866;50.748;12.630;2023-11-21T13:38:07;44.83;;;23.60;;
26106;SDS011;13866;50.748;12.630;2023-11-21T13:40:35;32.40;;;18.77;;
26106;SDS011;13866;50.748;12.630;2023-11-21T13:43:08;15.30;;;9.40;;
26106;SDS011;13866;50.748;12.630;2023-11-21T13:45:44;8.57;;;7.80;;
26106;SDS011;13866;50.748;12.630;2023-11-21T13:48:11;15.93;;;10.53;;
26106;SDS011;13866;50.748;12.630;2023-11-21T13:50:45;22.40;;;15.20;;
26106;SDS011;13866;50.748;12.630;2023-11-21T13:53:21;18.57;;;13.07;;
26106;SDS011;13866;50.748;12.630;2023-11-21T13:55:50;11.20;;;10.00;;
26106;SDS011;13866;50.748;12.630;2023-11-21T13:58:19;12.57;;;9.77;;
26106;SDS011;13866;50.748;12.630;2023-11-21T14:00:49;18.30;;;11.47;;
26106;SDS011;13866;50.748;12.630;2023-11-21T14:03:22;14.60;;;10.53;;
26106;SDS011;13866;50.748;12.630;2023-11-21T14:05:50;18.20;;;13.70;;
26106;SDS011;13866;50.748;12.630;2023-11-21T14:08:17;12.50;;;10.50;;
26106;SDS011;13866;50.748;12.630;2023-11-21T14:10:49;7.23;;;6.63;;
26106;SDS011;13866;50.748;12.630;2023-11-21T14:13:18;4.47;;;4.27;;
26106;SDS011;13866;50.748;12.630;2023-11-21T14:15:45;3.80;;;3.80;;
26106;SDS011;13866;50.748;12.630;2023-11-21T14:18:11;4.70;;;4.60;;
26106;SDS011;13866;50.748;12.630;2023-11-21T14:20:42;3.93;;;3.83;;
26106;SDS011;13866;50.748;12.630;2023-11-21T14:23:07;4.17;;;3.87;;
26106;SDS011;13866;50.748;12.630;2023-11-21T14:25:35;4.37;;;3.90;;
26106;SDS011;13866;50.748;12.630;2023-11-21T14:28:02;4.60;;;4.50;;
26106;SDS011;13866;50.748;12.630;2023-11-21T14:30:29;4.33;;;4.20;;
26106;SDS011;13866;50.748;12.630;2023-11-21T14:32:57;5.33;;;5.03;;
26106;SDS011;13866;50.748;12.630;2023-11-21T14:35:23;5.63;;;5.30;;
26106;SDS011;13866;50.748;12.630;2023-11-21T14:37:48;5.37;;;5.17;;
26106;SDS011;13866;50.748;12.630;2023-11-21T14:40:14;5.10;;;4.90;;
26106;SDS011;13866;50.748;12.630;2023-11-21T14:42:41;5.20;;;5.00;;
26106;SDS011;13866;50.748;12.630;2023-11-21T14:45:12;5.60;;;5.40;;